createdAt,value
2019-04-29T00:00:48.984Z,69.35
2019-04-29T00:01:55.175Z,69.28
2019-04-29T00:03:00.190Z,69.17
2019-04-29T00:04:05.331Z,69.13
2019-04-29T00:05:11.124Z,69.09
2019-04-29T00:06:16.589Z,69.05
2019-04-29T00:07:22.023Z,69.04
2019-04-29T00:08:27.221Z,69.01
2019-04-29T00:09:32.280Z,69.00
2019-04-29T00:10:37.744Z,68.96
2019-04-29T00:11:42.950Z,68.97
2019-04-29T00:12:48.053Z,68.94
2019-04-29T00:13:53.299Z,68.97
2019-04-29T00:15:16.176Z,69.03
2019-04-29T00:16:39.583Z,69.12
2019-04-29T00:17:56.941Z,69.21
2019-04-29T00:19:39.365Z,69.31
2019-04-29T00:20:49.650Z,69.46
2019-04-29T00:21:54.772Z,69.58
2019-04-29T00:22:59.702Z,69.67
2019-04-29T00:24:10.493Z,69.78
2019-04-29T00:25:12.427Z,69.88
2019-04-29T00:26:17.587Z,70.01
2019-04-29T00:27:22.665Z,70.07
2019-04-29T00:28:27.898Z,70.08
2019-04-29T00:29:32.862Z,70.09
2019-04-29T00:30:37.838Z,70.08
2019-04-29T00:31:42.925Z,70.07
2019-04-29T00:32:47.925Z,70.08
2019-04-29T00:33:52.896Z,70.09
2019-04-29T00:34:57.889Z,70.08
2019-04-29T00:36:03.163Z,70.07
2019-04-29T00:37:31.400Z,70.05
2019-04-29T00:38:55.357Z,70.04
2019-04-29T00:40:17.387Z,70.03
2019-04-29T00:41:40.330Z,70.10
2019-04-29T00:42:52.562Z,70.12
2019-04-29T00:44:00.691Z,70.16
2019-04-29T00:45:06.117Z,70.23
2019-04-29T00:46:11.914Z,70.34
2019-04-29T00:47:16.880Z,70.39
2019-04-29T00:48:22.245Z,70.39
2019-04-29T00:49:27.389Z,70.38
2019-04-29T00:50:32.787Z,70.36
2019-04-29T00:51:38.076Z,70.43
2019-04-29T00:52:43.216Z,70.47
2019-04-29T00:53:49.235Z,70.56
2019-04-29T00:55:00.599Z,70.67
2019-04-29T00:56:06.009Z,70.78
2019-04-29T00:57:11.004Z,70.89
2019-04-29T00:58:16.145Z,71.05
2019-04-29T00:59:21.199Z,71.13
2019-04-29T01:00:38.138Z,71.23
2019-04-29T01:01:46.551Z,71.32
2019-04-29T01:02:51.517Z,71.39
2019-04-29T01:03:56.583Z,71.46
2019-04-29T01:05:01.732Z,71.53
2019-04-29T01:06:06.956Z,71.57
2019-04-29T01:07:11.984Z,71.62
2019-04-29T01:08:17.065Z,71.64
2019-04-29T01:09:23.838Z,71.64
2019-04-29T01:10:29.365Z,71.62
2019-04-29T01:11:35.413Z,71.65
2019-04-29T01:12:40.450Z,71.64
2019-04-29T01:13:45.854Z,71.55
2019-04-29T01:14:51.027Z,71.45
2019-04-29T01:15:56.197Z,71.32
2019-04-29T01:17:01.346Z,71.22
2019-04-29T01:18:06.645Z,71.12
2019-04-29T01:19:11.762Z,71.05
2019-04-29T01:20:20.196Z,71.05
2019-04-29T01:21:25.296Z,71.09
2019-04-29T01:22:30.849Z,71.13
2019-04-29T01:23:35.877Z,71.18
2019-04-29T01:24:41.071Z,71.22
2019-04-29T01:25:48.263Z,71.26
2019-04-29T01:27:15.265Z,71.32
2019-04-29T01:28:28.662Z,71.30
2019-04-29T01:29:33.845Z,71.30
2019-04-29T01:31:12.359Z,71.50
2019-04-29T01:32:17.605Z,71.54
2019-04-29T01:33:24.282Z,71.54
2019-04-29T01:34:38.455Z,71.57
2019-04-29T01:35:43.843Z,71.68
2019-04-29T01:36:48.837Z,71.74
2019-04-29T01:37:53.854Z,71.77
2019-04-29T01:39:01.310Z,71.84
2019-04-29T01:40:37.861Z,71.92
2019-04-29T01:41:53.945Z,71.99
2019-04-29T01:42:59.482Z,72.03
2019-04-29T01:44:05.965Z,72.11
2019-04-29T01:45:11.159Z,72.15
2019-04-29T01:46:18.949Z,72.20
2019-04-29T01:47:24.082Z,72.23
2019-04-29T01:48:29.533Z,72.27
2019-04-29T01:49:34.828Z,72.33
2019-04-29T01:50:40.061Z,72.36
2019-04-29T01:51:45.069Z,72.39
2019-04-29T01:52:50.332Z,72.37
2019-04-29T01:53:55.499Z,72.41
2019-04-29T01:55:01.073Z,72.40
2019-04-29T01:56:06.230Z,72.35
2019-04-29T01:57:11.348Z,72.26
2019-04-29T01:58:16.452Z,72.17
2019-04-29T01:59:21.603Z,72.10
2019-04-29T02:00:26.912Z,72.08
2019-04-29T02:01:31.938Z,72.08
2019-04-29T02:02:37.129Z,72.05
2019-04-29T02:03:42.278Z,72.09
2019-04-29T02:04:47.386Z,72.10
2019-04-29T02:05:52.625Z,72.15
2019-04-29T02:06:57.562Z,72.21
2019-04-29T02:08:02.530Z,72.27
2019-04-29T02:09:11.212Z,72.35
2019-04-29T02:10:28.488Z,72.47
2019-04-29T02:11:33.703Z,72.47
2019-04-29T02:12:38.689Z,72.41
2019-04-29T02:13:43.879Z,72.39
2019-04-29T02:14:49.001Z,72.42
2019-04-29T02:15:54.226Z,72.45
2019-04-29T02:16:59.609Z,72.52
2019-04-29T02:18:04.817Z,72.53
2019-04-29T02:19:10.066Z,72.56
2019-04-29T02:20:15.308Z,72.57
2019-04-29T02:21:20.430Z,72.59
2019-04-29T02:22:45.912Z,72.65
2019-04-29T02:24:02.580Z,72.68
2019-04-29T02:25:20.742Z,72.64
2019-04-29T02:26:26.043Z,72.65
2019-04-29T02:27:31.093Z,72.68
2019-04-29T02:28:36.358Z,72.76
2019-04-29T02:29:41.322Z,72.82
2019-04-29T02:30:51.751Z,72.88
2019-04-29T02:31:56.654Z,72.97
2019-04-29T02:33:01.923Z,73.00
2019-04-29T02:34:07.267Z,73.04
2019-04-29T02:35:12.283Z,73.08
2019-04-29T02:36:17.318Z,73.12
2019-04-29T02:37:28.381Z,73.15
2019-04-29T02:38:42.166Z,73.19
2019-04-29T02:39:53.324Z,73.13
2019-04-29T02:41:06.404Z,73.12
2019-04-29T02:42:45.319Z,73.06
2019-04-29T02:43:52.296Z,73.01
2019-04-29T02:45:04.308Z,72.95
2019-04-29T02:46:09.389Z,72.89
2019-04-29T02:47:14.531Z,72.86
2019-04-29T02:48:19.590Z,72.81
2019-04-29T02:49:24.628Z,72.80
2019-04-29T02:50:29.751Z,72.83
2019-04-29T02:51:52.273Z,72.75
2019-04-29T02:52:57.373Z,72.68
2019-04-29T02:54:02.326Z,72.55
2019-04-29T02:55:08.627Z,72.51
2019-04-29T02:56:13.908Z,72.44
2019-04-29T02:57:36.628Z,72.37
2019-04-29T02:58:47.882Z,72.27
2019-04-29T02:59:55.752Z,72.15
2019-04-29T03:01:08.951Z,72.05
2019-04-29T03:02:30.706Z,71.99
2019-04-29T03:03:53.242Z,71.94
2019-04-29T03:05:13.611Z,71.92
2019-04-29T03:06:18.756Z,71.82
2019-04-29T03:07:23.898Z,71.83
2019-04-29T03:08:29.098Z,71.81
2019-04-29T03:09:45.181Z,71.81
2019-04-29T03:10:50.362Z,71.71
2019-04-29T03:11:55.754Z,71.71
2019-04-29T03:13:00.841Z,71.74
2019-04-29T03:14:06.175Z,71.71
2019-04-29T03:15:11.805Z,71.71
2019-04-29T03:16:18.743Z,71.75
2019-04-29T03:17:23.870Z,71.83
2019-04-29T03:18:31.245Z,71.92
2019-04-29T03:19:38.768Z,72.02
2019-04-29T03:20:49.446Z,72.11
2019-04-29T03:21:56.764Z,72.21
2019-04-29T03:23:09.285Z,72.30
2019-04-29T03:24:14.496Z,72.37
2019-04-29T03:25:19.883Z,72.67
2019-04-29T03:26:24.927Z,72.67
2019-04-29T03:27:30.714Z,72.65
2019-04-29T03:28:36.102Z,72.75
2019-04-29T03:29:41.083Z,72.81
2019-04-29T03:30:46.475Z,72.87
2019-04-29T03:31:56.053Z,72.93
2019-04-29T03:33:01.264Z,72.97
2019-04-29T03:34:06.274Z,73.03
2019-04-29T03:35:11.599Z,73.08
2019-04-29T03:36:16.668Z,73.12
2019-04-29T03:37:21.692Z,73.18
2019-04-29T03:38:27.465Z,73.25
2019-04-29T03:39:32.564Z,73.28
2019-04-29T03:40:37.905Z,73.33
2019-04-29T03:41:43.134Z,73.37
2019-04-29T03:42:48.260Z,73.43
2019-04-29T03:43:53.451Z,73.48
2019-04-29T03:44:58.538Z,73.54
2019-04-29T03:46:03.830Z,73.58
2019-04-29T03:47:08.907Z,73.55
2019-04-29T03:48:13.927Z,73.62
2019-04-29T03:49:19.103Z,73.62
2019-04-29T03:50:24.126Z,73.81
2019-04-29T03:51:29.463Z,73.84
2019-04-29T03:52:34.540Z,73.88
2019-04-29T03:53:39.539Z,73.90
2019-04-29T03:54:44.942Z,74.09
2019-04-29T03:55:52.155Z,73.95
2019-04-29T03:56:57.306Z,73.89
2019-04-29T03:58:02.602Z,73.75
2019-04-29T03:59:07.579Z,73.66
2019-04-29T04:00:14.558Z,73.55
2019-04-29T04:01:28.498Z,73.50
2019-04-29T04:02:42.638Z,72.90
2019-04-29T04:03:51.998Z,73.43
2019-04-29T04:05:21.870Z,73.39
2019-04-29T04:06:45.334Z,73.36
2019-04-29T04:07:54.318Z,73.34
2019-04-29T04:09:08.604Z,73.33
2019-04-29T04:10:14.146Z,73.32
2019-04-29T04:11:19.587Z,73.34
2019-04-29T04:12:24.472Z,73.40
2019-04-29T04:13:29.751Z,73.47
2019-04-29T04:14:34.827Z,73.57
2019-04-29T04:15:40.037Z,73.66
2019-04-29T04:17:20.651Z,73.73
2019-04-29T04:18:27.698Z,73.81
2019-04-29T04:19:33.305Z,73.85
2019-04-29T04:20:38.518Z,73.93
2019-04-29T04:21:43.497Z,73.98
2019-04-29T04:22:48.897Z,74.01
2019-04-29T04:23:57.976Z,74.08
2019-04-29T04:25:00.734Z,74.07
2019-04-29T04:26:06.013Z,74.07
2019-04-29T04:27:11.160Z,73.92
2019-04-29T04:28:16.346Z,73.92
2019-04-29T04:29:21.842Z,73.69
2019-04-29T04:30:27.422Z,73.96
2019-04-29T04:31:32.477Z,73.96
2019-04-29T04:32:37.781Z,73.99
2019-04-29T04:33:43.992Z,73.92
2019-04-29T04:34:49.237Z,73.76
2019-04-29T04:35:54.437Z,73.69
2019-04-29T04:37:00.409Z,73.65
2019-04-29T04:38:05.958Z,73.69
2019-04-29T04:39:11.278Z,73.70
2019-04-29T04:40:23.486Z,73.73
2019-04-29T04:41:28.833Z,73.76
2019-04-29T04:42:34.595Z,73.74
2019-04-29T04:43:40.361Z,73.67
2019-04-29T04:44:48.920Z,73.61
2019-04-29T04:45:54.013Z,73.65
2019-04-29T04:46:59.357Z,73.60
2019-04-29T04:48:04.511Z,73.66
2019-04-29T04:49:09.580Z,73.66
2019-04-29T04:50:14.876Z,73.64
2019-04-29T04:51:21.072Z,73.63
2019-04-29T04:52:26.356Z,73.63
2019-04-29T04:53:31.322Z,73.64
2019-04-29T04:54:36.806Z,73.68
2019-04-29T04:55:43.129Z,73.71
2019-04-29T04:56:48.362Z,73.72
2019-04-29T04:57:53.797Z,73.73
2019-04-29T04:58:58.917Z,73.76
2019-04-29T05:00:06.364Z,73.78
2019-04-29T05:01:11.711Z,73.85
2019-04-29T05:02:16.963Z,73.92
2019-04-29T05:03:22.133Z,73.94
2019-04-29T05:04:27.410Z,73.99
2019-04-29T05:05:32.819Z,74.06
2019-04-29T05:06:37.913Z,74.05
2019-04-29T05:07:42.995Z,74.06
2019-04-29T05:08:48.154Z,74.06
2019-04-29T05:09:53.358Z,74.10
2019-04-29T05:10:58.511Z,74.16
2019-04-29T05:12:03.804Z,74.20
2019-04-29T05:13:09.039Z,74.24
2019-04-29T05:14:14.724Z,74.30
2019-04-29T05:15:20.147Z,74.37
2019-04-29T05:16:25.394Z,74.42
2019-04-29T05:17:30.660Z,74.44
2019-04-29T05:18:35.656Z,74.51
2019-04-29T05:19:40.858Z,74.51
2019-04-29T05:20:46.064Z,74.53
2019-04-29T05:21:51.138Z,74.61
2019-04-29T05:23:02.013Z,74.67
2019-04-29T05:24:07.069Z,74.30
2019-04-29T05:25:12.370Z,74.30
2019-04-29T05:26:17.411Z,74.79
2019-04-29T05:27:22.590Z,74.85
2019-04-29T05:28:27.565Z,74.85
2019-04-29T05:29:32.602Z,74.89
2019-04-29T05:30:38.060Z,75.02
2019-04-29T05:31:43.332Z,75.02
2019-04-29T05:32:48.706Z,74.97
2019-04-29T05:33:53.855Z,74.93
2019-04-29T05:35:01.314Z,74.97
2019-04-29T05:36:38.273Z,74.94
2019-04-29T05:37:56.674Z,74.91
2019-04-29T05:39:08.949Z,74.87
2019-04-29T05:40:33.077Z,75.03
2019-04-29T05:41:38.328Z,75.19
2019-04-29T05:42:43.392Z,75.30
2019-04-29T05:44:13.355Z,75.36
2019-04-29T05:45:26.387Z,75.35
2019-04-29T05:46:56.401Z,75.25
2019-04-29T05:48:07.613Z,75.14
2019-04-29T05:49:14.645Z,75.10
2019-04-29T05:50:47.617Z,74.94
2019-04-29T05:51:57.491Z,74.75
2019-04-29T05:53:16.365Z,74.47
2019-04-29T05:54:21.599Z,74.31
2019-04-29T05:55:26.816Z,74.24
2019-04-29T05:56:31.786Z,74.11
2019-04-29T05:57:36.958Z,73.96
2019-04-29T05:58:42.096Z,73.76
2019-04-29T05:59:49.457Z,73.67
2019-04-29T06:01:01.112Z,73.42
2019-04-29T06:02:06.208Z,73.19
2019-04-29T06:03:11.332Z,73.00
2019-04-29T06:04:18.175Z,72.88
2019-04-29T06:05:23.645Z,72.66
2019-04-29T06:06:28.798Z,72.41
2019-04-29T06:07:34.120Z,72.16
2019-04-29T06:08:39.549Z,72.01
2019-04-29T06:09:47.024Z,71.84
2019-04-29T06:10:52.142Z,71.65
2019-04-29T06:11:57.339Z,71.51
2019-04-29T06:13:02.684Z,71.29
2019-04-29T06:14:08.206Z,71.07
2019-04-29T06:15:13.521Z,70.87
2019-04-29T06:16:20.877Z,70.67
2019-04-29T06:17:25.641Z,70.52
2019-04-29T06:18:31.189Z,70.43
2019-04-29T06:19:39.329Z,70.22
2019-04-29T06:20:44.559Z,70.10
2019-04-29T06:21:49.865Z,69.99
2019-04-29T06:22:54.954Z,69.87
2019-04-29T06:24:04.356Z,69.80
2019-04-29T06:25:07.265Z,69.72
2019-04-29T06:26:12.412Z,69.69
2019-04-29T06:27:17.520Z,69.65
2019-04-29T06:28:26.421Z,69.57
2019-04-29T06:29:31.182Z,69.48
2019-04-29T06:30:38.753Z,69.36
2019-04-29T06:31:43.222Z,69.20
2019-04-29T06:32:48.202Z,69.07
2019-04-29T06:33:53.282Z,68.90
2019-04-29T06:34:58.368Z,68.82
2019-04-29T06:36:03.439Z,68.69
2019-04-29T06:37:08.623Z,68.61
2019-04-29T06:38:14.177Z,68.51
2019-04-29T06:39:19.090Z,68.38
2019-04-29T06:40:24.152Z,68.23
2019-04-29T06:41:29.380Z,68.10
2019-04-29T06:42:34.581Z,68.06
2019-04-29T06:43:39.673Z,68.03
2019-04-29T06:44:49.118Z,67.99
2019-04-29T06:45:52.305Z,68.00
2019-04-29T06:46:57.277Z,67.95
2019-04-29T06:48:02.437Z,67.87
2019-04-29T06:49:10.334Z,67.79
2019-04-29T06:50:14.975Z,67.73
2019-04-29T06:51:19.968Z,67.69
2019-04-29T06:52:25.365Z,67.69
2019-04-29T06:53:30.601Z,67.60
2019-04-29T06:54:35.613Z,67.64
2019-04-29T06:55:40.682Z,67.64
2019-04-29T06:56:45.783Z,67.70
2019-04-29T06:57:50.875Z,67.75
2019-04-29T06:58:56.131Z,67.81
2019-04-29T07:00:01.156Z,67.86
2019-04-29T07:01:06.306Z,67.88
2019-04-29T07:02:14.414Z,67.98
2019-04-29T07:03:20.908Z,68.01
2019-04-29T07:04:25.284Z,67.99
2019-04-29T07:05:30.508Z,68.00
2019-04-29T07:06:35.855Z,67.95
2019-04-29T07:07:40.985Z,67.90
2019-04-29T07:08:46.088Z,67.83
2019-04-29T07:09:51.138Z,67.77
2019-04-29T07:11:01.214Z,67.77
2019-04-29T07:12:03.433Z,67.82
2019-04-29T07:13:08.823Z,67.83
2019-04-29T07:14:13.955Z,67.85
2019-04-29T07:15:19.056Z,67.86
2019-04-29T07:16:27.227Z,67.82
2019-04-29T07:17:30.919Z,67.75
2019-04-29T07:18:40.323Z,67.65
2019-04-29T07:19:42.939Z,67.55
2019-04-29T07:20:48.323Z,67.49
2019-04-29T07:21:56.313Z,67.42
2019-04-29T07:23:00.690Z,67.32
2019-04-29T07:24:06.787Z,67.21
2019-04-29T07:25:11.853Z,67.21
2019-04-29T07:26:17.003Z,67.12
2019-04-29T07:27:22.054Z,67.12
2019-04-29T07:28:27.143Z,67.07
2019-04-29T07:29:32.981Z,67.03
2019-04-29T07:30:59.917Z,67.01
2019-04-29T07:31:45.187Z,66.96
2019-04-29T07:32:50.280Z,66.90
2019-04-29T07:33:57.935Z,66.85
2019-04-29T07:35:05.893Z,66.79
2019-04-29T07:36:11.085Z,66.69
2019-04-29T07:37:16.852Z,66.63
2019-04-29T07:38:22.130Z,66.59
2019-04-29T07:39:31.661Z,66.59
2019-04-29T07:40:34.231Z,66.58
2019-04-29T07:41:39.469Z,66.62
2019-04-29T07:42:44.645Z,66.57
2019-04-29T07:43:49.687Z,66.38
2019-04-29T07:45:43.583Z,66.08
2019-04-29T07:46:56.675Z,65.84
2019-04-29T07:47:57.171Z,65.65
2019-04-29T07:49:05.584Z,65.50
2019-04-29T07:50:10.003Z,65.36
2019-04-29T07:51:15.110Z,65.26
2019-04-29T07:52:20.418Z,65.20
2019-04-29T07:53:35.049Z,65.08
2019-04-29T07:54:32.150Z,64.79
2019-04-29T07:55:37.190Z,64.61
2019-04-29T07:56:43.628Z,64.39
2019-04-29T07:57:52.131Z,63.99
2019-04-29T07:58:58.879Z,63.57
2019-04-29T08:00:02.877Z,63.35
2019-04-29T08:01:07.955Z,63.25
2019-04-29T08:02:12.986Z,63.15
2019-04-29T08:03:18.062Z,63.08
2019-04-29T08:04:23.270Z,63.04
2019-04-29T08:05:29.814Z,63.01
2019-04-29T08:06:38.257Z,62.87
2019-04-29T08:07:42.534Z,62.74
2019-04-29T08:08:55.122Z,62.65
2019-04-29T08:09:56.204Z,62.62
2019-04-29T08:11:01.410Z,62.58
2019-04-29T08:12:06.588Z,62.58
2019-04-29T08:13:12.730Z,62.56
2019-04-29T08:14:19.119Z,62.51
2019-04-29T08:15:24.418Z,62.49
2019-04-29T08:16:29.647Z,62.43
2019-04-29T08:17:34.650Z,62.41
2019-04-29T08:18:39.928Z,62.36
2019-04-29T08:19:44.940Z,62.32
2019-04-29T08:20:50.254Z,62.36
2019-04-29T08:21:55.366Z,62.37
2019-04-29T08:23:02.588Z,62.34
2019-04-29T08:24:11.610Z,62.35
2019-04-29T08:25:14.656Z,62.29
2019-04-29T08:26:19.689Z,62.18
2019-04-29T08:27:24.783Z,62.10
2019-04-29T08:28:30.133Z,62.08
2019-04-29T08:29:35.832Z,62.04
2019-04-29T08:30:45.759Z,62.06
2019-04-29T08:31:52.045Z,61.98
2019-04-29T08:32:55.432Z,61.99
2019-04-29T08:34:01.006Z,61.91
2019-04-29T08:35:06.397Z,61.85
2019-04-29T08:36:11.435Z,61.87
2019-04-29T08:37:16.630Z,61.86
2019-04-29T08:38:21.725Z,61.71
2019-04-29T08:39:29.530Z,61.57
2019-04-29T08:40:34.543Z,61.40
2019-04-29T08:41:39.703Z,61.27
2019-04-29T08:42:49.295Z,61.01
2019-04-29T08:44:21.490Z,60.49
2019-04-29T08:45:40.471Z,60.09
2019-04-29T08:47:04.503Z,59.81
2019-04-29T08:48:09.901Z,59.79
2019-04-29T08:49:15.234Z,59.77
2019-04-29T08:50:20.515Z,59.78
2019-04-29T08:51:25.587Z,59.81
2019-04-29T08:52:30.616Z,59.72
2019-04-29T08:53:35.758Z,59.60
2019-04-29T08:54:40.722Z,59.61
2019-04-29T08:55:45.776Z,59.40
2019-04-29T08:57:02.183Z,59.37
2019-04-29T08:57:57.565Z,59.37
2019-04-29T08:59:02.555Z,59.28
2019-04-29T09:00:09.372Z,59.10
2019-04-29T09:01:14.420Z,59.00
2019-04-29T09:02:33.684Z,58.94
2019-04-29T09:03:39.663Z,58.81
2019-04-29T09:04:33.832Z,58.82
2019-04-29T09:05:41.667Z,58.88
2019-04-29T09:06:46.739Z,58.83
2019-04-29T09:07:57.136Z,58.81
2019-04-29T09:08:59.836Z,58.81
2019-04-29T09:10:05.473Z,58.80
2019-04-29T09:11:12.810Z,58.67
2019-04-29T09:12:19.200Z,58.45
2019-04-29T09:13:24.290Z,58.30
2019-04-29T09:14:29.789Z,58.13
2019-04-29T09:15:35.309Z,57.93
2019-04-29T09:16:40.549Z,57.88
2019-04-29T09:17:45.847Z,57.80
2019-04-29T09:18:51.078Z,57.53
2019-04-29T09:19:56.209Z,57.02
2019-04-29T09:21:01.205Z,56.73
2019-04-29T09:22:08.081Z,56.38
2019-04-29T09:23:15.739Z,56.07
2019-04-29T09:24:20.864Z,55.77
2019-04-29T09:26:01.734Z,55.50
2019-04-29T09:27:16.205Z,55.23
2019-04-29T09:28:27.004Z,54.91
2019-04-29T09:29:30.669Z,54.70
2019-04-29T09:30:38.502Z,54.22
2019-04-29T09:31:42.481Z,53.92
2019-04-29T09:32:47.575Z,53.56
2019-04-29T09:34:06.009Z,53.46
2019-04-29T09:35:00.539Z,53.31
2019-04-29T09:36:09.301Z,53.18
2019-04-29T09:37:12.596Z,53.16
2019-04-29T09:38:17.706Z,52.92
2019-04-29T09:39:23.004Z,52.70
2019-04-29T09:40:30.132Z,52.37
2019-04-29T09:41:48.626Z,52.15
2019-04-29T09:43:00.704Z,51.75
2019-04-29T09:44:23.412Z,51.60
2019-04-29T09:45:34.200Z,51.40
2019-04-29T09:46:39.347Z,51.43
2019-04-29T09:47:44.735Z,51.38
2019-04-29T09:48:49.747Z,51.45
2019-04-29T09:49:55.010Z,51.56
2019-04-29T09:51:00.111Z,51.50
2019-04-29T09:52:05.702Z,51.32
2019-04-29T09:53:10.894Z,51.15
2019-04-29T09:54:16.277Z,51.01
2019-04-29T09:55:22.158Z,50.65
2019-04-29T09:56:27.484Z,50.43
2019-04-29T09:57:34.174Z,50.30
2019-04-29T09:58:39.309Z,49.91
2019-04-29T09:59:49.586Z,49.78
2019-04-29T10:01:22.611Z,49.65
2019-04-29T10:02:36.484Z,49.57
2019-04-29T10:04:02.095Z,49.57
2019-04-29T10:05:24.988Z,49.63
2019-04-29T10:06:32.773Z,49.70
2019-04-29T10:07:38.100Z,49.85
2019-04-29T10:08:43.367Z,49.91
2019-04-29T10:09:56.838Z,49.93
2019-04-29T10:10:55.332Z,49.92
2019-04-29T10:12:00.494Z,49.81
2019-04-29T10:13:05.855Z,49.63
2019-04-29T10:14:11.014Z,49.48
2019-04-29T10:15:17.913Z,49.35
2019-04-29T10:16:39.459Z,49.00
2019-04-29T10:17:55.707Z,48.79
2019-04-29T10:19:05.311Z,48.36
2019-04-29T10:20:33.781Z,48.30
2019-04-29T10:21:39.269Z,48.00
2019-04-29T10:22:44.377Z,48.13
2019-04-29T10:23:49.725Z,48.24
2019-04-29T10:24:54.903Z,48.33
2019-04-29T10:26:00.593Z,48.25
2019-04-29T10:27:07.339Z,48.29
2019-04-29T10:28:12.602Z,47.96
2019-04-29T10:29:20.316Z,47.97
2019-04-29T10:30:26.792Z,47.71
2019-04-29T10:31:33.577Z,47.57
2019-04-29T10:32:42.334Z,47.45
2019-04-29T10:33:50.234Z,47.49
2019-04-29T10:34:54.942Z,47.50
2019-04-29T10:36:00.199Z,47.42
2019-04-29T10:37:06.613Z,47.41
2019-04-29T10:38:11.922Z,47.35
2019-04-29T10:39:42.559Z,47.34
2019-04-29T10:41:05.314Z,47.38
2019-04-29T10:42:10.923Z,47.38
2019-04-29T10:43:41.313Z,47.41
2019-04-29T10:44:56.884Z,47.32
2019-04-29T10:46:21.196Z,47.48
2019-04-29T10:47:43.904Z,47.60
2019-04-29T10:48:59.119Z,47.52
2019-04-29T10:50:10.707Z,47.50
2019-04-29T10:51:16.293Z,47.50
2019-04-29T10:52:21.535Z,47.29
2019-04-29T10:53:28.886Z,47.21
2019-04-29T10:54:34.004Z,47.16
2019-04-29T10:55:39.523Z,47.08
2019-04-29T10:56:44.782Z,47.04
2019-04-29T10:57:51.433Z,46.97
2019-04-29T10:58:56.681Z,46.85
2019-04-29T11:00:24.167Z,46.78
2019-04-29T11:02:25.567Z,46.56
2019-04-29T11:03:30.986Z,46.43
2019-04-29T11:04:38.028Z,46.33
2019-04-29T11:05:59.997Z,46.45
2019-04-29T11:06:53.805Z,46.64
2019-04-29T11:08:05.575Z,46.75
2019-04-29T11:09:28.077Z,46.89
2019-04-29T11:10:33.371Z,47.03
2019-04-29T11:11:38.554Z,47.06
2019-04-29T11:12:43.954Z,47.03
2019-04-29T11:13:50.618Z,47.06
2019-04-29T11:14:55.802Z,47.00
2019-04-29T11:16:00.976Z,46.83
2019-04-29T11:17:15.865Z,46.94
2019-04-29T11:18:12.901Z,46.93
2019-04-29T11:19:19.212Z,46.92
2019-04-29T11:20:24.396Z,46.86
2019-04-29T11:21:31.279Z,46.80
2019-04-29T11:22:44.360Z,46.70
2019-04-29T11:23:58.002Z,46.46
2019-04-29T11:25:14.631Z,46.08
2019-04-29T11:26:44.622Z,45.74
2019-04-29T11:27:56.019Z,45.59
2019-04-29T11:29:00.206Z,45.59
2019-04-29T11:30:07.980Z,45.54
2019-04-29T11:31:14.030Z,45.53
2019-04-29T11:32:36.376Z,45.58
2019-04-29T11:34:00.496Z,45.64
2019-04-29T11:35:13.568Z,45.77
2019-04-29T11:36:20.611Z,45.92
2019-04-29T11:37:25.757Z,45.98
2019-04-29T11:38:33.359Z,45.97
2019-04-29T11:39:37.713Z,45.92
2019-04-29T11:40:44.081Z,46.02
2019-04-29T11:41:50.289Z,45.91
2019-04-29T11:42:56.727Z,45.66
2019-04-29T11:44:01.818Z,45.28
2019-04-29T11:45:09.222Z,44.98
2019-04-29T11:46:15.595Z,44.91
2019-04-29T11:47:24.902Z,44.77
2019-04-29T11:48:27.881Z,44.48
2019-04-29T11:49:39.010Z,44.30
2019-04-29T11:50:57.933Z,44.10
2019-04-29T11:52:09.767Z,43.95
2019-04-29T11:53:11.360Z,43.68
2019-04-29T11:54:18.105Z,43.55
2019-04-29T11:55:23.507Z,43.64
2019-04-29T11:56:28.876Z,43.81
2019-04-29T11:57:46.787Z,44.04
2019-04-29T11:59:04.919Z,44.26
2019-04-29T12:00:24.503Z,44.44
2019-04-29T12:01:47.120Z,44.46
2019-04-29T12:02:57.406Z,44.42
2019-04-29T12:04:05.766Z,44.32
2019-04-29T12:05:31.368Z,44.27
2019-04-29T12:06:36.762Z,44.26
2019-04-29T12:07:41.842Z,43.91
2019-04-29T12:08:48.260Z,43.96
2019-04-29T12:09:53.787Z,43.89
2019-04-29T12:11:07.298Z,43.75
2019-04-29T12:12:07.907Z,43.67
2019-04-29T12:13:22.926Z,43.56
2019-04-29T12:14:37.998Z,43.54
2019-04-29T12:15:57.217Z,43.66
2019-04-29T12:17:12.515Z,43.80
2019-04-29T12:18:20.227Z,43.89
2019-04-29T12:19:28.614Z,43.82
2019-04-29T12:20:41.514Z,43.73
2019-04-29T12:21:46.672Z,43.83
2019-04-29T12:22:52.056Z,43.97
2019-04-29T12:23:59.006Z,43.98
2019-04-29T12:25:04.390Z,43.94
2019-04-29T12:26:11.297Z,43.80
2019-04-29T12:27:19.882Z,43.47
2019-04-29T12:28:23.379Z,43.33
2019-04-29T12:29:28.683Z,43.24
2019-04-29T12:30:37.590Z,42.97
2019-04-29T12:32:00.646Z,42.67
2019-04-29T12:33:28.456Z,42.46
2019-04-29T12:34:45.388Z,42.34
2019-04-29T12:36:03.344Z,42.63
2019-04-29T12:37:15.853Z,42.92
2019-04-29T12:38:50.737Z,43.12
2019-04-29T12:40:23.924Z,43.24
2019-04-29T12:41:49.388Z,43.11
2019-04-29T12:43:11.356Z,42.91
2019-04-29T12:44:35.292Z,42.75
2019-04-29T12:45:47.310Z,42.42
2019-04-29T12:46:58.575Z,42.05
2019-04-29T12:48:06.465Z,42.03
2019-04-29T12:49:13.847Z,42.14
2019-04-29T12:50:21.700Z,41.92
2019-04-29T12:51:25.270Z,41.76
2019-04-29T12:52:30.347Z,41.65
2019-04-29T12:53:35.778Z,41.40
2019-04-29T12:54:41.977Z,41.31
2019-04-29T12:55:53.176Z,41.21
2019-04-29T12:56:55.872Z,41.01
2019-04-29T12:58:01.358Z,41.06
2019-04-29T12:59:06.728Z,41.04
2019-04-29T13:00:13.695Z,41.09
2019-04-29T13:01:50.847Z,41.27
2019-04-29T13:03:02.360Z,41.38
2019-04-29T13:04:44.998Z,41.45
2019-04-29T13:06:02.632Z,41.60
2019-04-29T13:07:38.812Z,41.85
2019-04-29T13:08:46.838Z,42.10
2019-04-29T13:09:53.551Z,42.26
2019-04-29T13:11:01.508Z,42.47
2019-04-29T13:12:19.101Z,42.58
2019-04-29T13:13:15.673Z,42.55
2019-04-29T13:14:22.399Z,42.47
2019-04-29T13:15:43.919Z,42.33
2019-04-29T13:17:14.495Z,42.34
2019-04-29T13:18:23.017Z,42.43
2019-04-29T13:19:37.363Z,42.42
2019-04-29T13:20:45.640Z,42.39
2019-04-29T13:21:49.295Z,42.46
2019-04-29T13:22:54.364Z,42.59
2019-04-29T13:24:13.847Z,42.62
2019-04-29T13:25:06.852Z,42.77
2019-04-29T13:26:12.377Z,42.97
2019-04-29T13:27:20.744Z,43.05
2019-04-29T13:28:30.199Z,42.92
2019-04-29T13:29:32.125Z,42.88
2019-04-29T13:30:38.249Z,42.93
2019-04-29T13:31:43.351Z,43.07
2019-04-29T13:32:48.695Z,43.13
2019-04-29T13:33:55.378Z,43.05
2019-04-29T13:35:10.877Z,42.87
2019-04-29T13:36:13.174Z,42.70
2019-04-29T13:37:20.588Z,42.52
2019-04-29T13:38:25.169Z,42.48
2019-04-29T13:39:39.227Z,42.47
2019-04-29T13:40:38.936Z,42.58
2019-04-29T13:41:57.687Z,42.69
2019-04-29T13:42:51.091Z,42.83
2019-04-29T13:44:03.901Z,42.91
2019-04-29T13:45:12.128Z,42.83
2019-04-29T13:46:31.305Z,42.86
2019-04-29T13:47:53.886Z,42.91
2019-04-29T13:49:29.837Z,42.90
2019-04-29T13:50:40.998Z,42.83
2019-04-29T13:51:46.053Z,42.86
2019-04-29T13:52:51.073Z,42.86
2019-04-29T13:53:59.194Z,42.65
2019-04-29T13:55:16.649Z,42.45
2019-04-29T13:56:13.987Z,42.31
2019-04-29T13:57:16.975Z,42.15
2019-04-29T13:58:26.763Z,41.89
2019-04-29T13:59:36.285Z,41.76
2019-04-29T14:00:55.547Z,41.75
2019-04-29T14:02:07.460Z,41.80
2019-04-29T14:03:15.896Z,42.00
2019-04-29T14:04:26.206Z,42.18
2019-04-29T14:05:32.493Z,42.22
2019-04-29T14:06:40.834Z,41.95
2019-04-29T14:07:48.736Z,41.86
2019-04-29T14:08:54.254Z,41.81
2019-04-29T14:09:59.446Z,41.66
2019-04-29T14:11:04.746Z,41.47
2019-04-29T14:12:46.647Z,41.22
2019-04-29T14:13:20.612Z,41.05
2019-04-29T14:14:24.670Z,40.85
2019-04-29T14:15:33.952Z,40.75
2019-04-29T14:16:37.250Z,40.60
2019-04-29T14:17:42.466Z,40.56
2019-04-29T14:18:48.232Z,40.43
2019-04-29T14:19:57.029Z,40.35
2019-04-29T14:21:01.675Z,40.36
2019-04-29T14:22:21.076Z,40.38
2019-04-29T14:23:13.774Z,40.49
2019-04-29T14:24:19.017Z,40.64
2019-04-29T14:25:24.204Z,40.67
2019-04-29T14:26:29.661Z,40.66
2019-04-29T14:27:34.603Z,40.47
2019-04-29T14:28:39.686Z,40.49
2019-04-29T14:29:44.748Z,40.45
2019-04-29T14:30:49.791Z,40.52
2019-04-29T14:31:59.357Z,40.54
2019-04-29T14:33:04.090Z,40.57
2019-04-29T14:34:20.473Z,40.63
2019-04-29T14:35:36.936Z,40.71
2019-04-29T14:36:41.984Z,40.70
2019-04-29T14:37:54.832Z,40.70
2019-04-29T14:38:54.143Z,40.54
2019-04-29T14:40:02.846Z,40.54
2019-04-29T14:41:06.471Z,40.48
2019-04-29T14:42:25.633Z,40.42